Riverton, WY

12:31 AM MST on December 29, 2014 (GMT -0700)
Logan Park | Change Station
CLOSE
Current Station
Personal Weather Station
Location: Riverton, WY
Elevation: 4984 ft
Nearby Weather Stations
Active Advisory: Winter Weather Advisory

Elev 4984 ft 43.04 °N, 108.39 °W | Updated 6 seconds ago

Overcast
Overcast
16.0 °F
Feels Like 16 °F
N
0.0
Wind Variable Wind from NE
Gusts 3.0 mph

Today
High -- | Low -- °F
--% Chance of Precip.
Yesterday
High -- | Low -- °F
Precip. -- in
7:44 AM 4:46 PM
First Quarter, 56% visible
Pressure 30.23 in
Visibility 10.0 miles
Clouds Overcast 5000 ft
Windchill 16 °F
Dew Point 14 °F
Humidity 86%
Rainfall 0.00 in
Snow Depth Not available.
UV 0 out of 12
Pollen .10 out of 12
Air Quality Not available.
Flu Activity Not available.
METAR KRIW 290653Z AUTO 03018G25KT 10SM OVC050 M09/M13 A3003 RMK AO2 PK WND 02026/0610 SLP236 T10891133 410611178

More Conditions Fewer Conditions

Pressure 30.23 in
Visibility 10.0 miles
Clouds Overcast 5000 ft
Windchill 16 °F
Dew Point 14 °F
Humidity 86%
Rainfall 0.00 in
Snow Depth Not available.
UV 0 out of 12
Pollen .10 out of 12
Air Quality Not available.
Flu Activity Not available.
METAR KRIW 290653Z AUTO 03018G25KT 10SM OVC050 M09/M13 A3003 RMK AO2 PK WND 02026/0610 SLP236 T10891133 410611178

More Conditions Fewer Conditions

10-Day Weather Forecast

Almanac

Astronomy

Dec. 29, 2014 Rise Set
Actual Time
Civil Twilight
Nautical Twilight
Astronomical Twilight
Moon
Length of Visible Light
Length of Day
Tomorrow will be .
, % of the Moon is Illuminated

Today's Extremes

State Highs State Lows

Community

WunderPhotos

Upload Photos

1,781,547 photos uploaded!

WunderBlogs® & News

Nearby

Air Quality

  Air Quality AQ Index Pollutant
Not available.

Snow Depth

Station Depth Elevation

Earthquake Activity

City Distance Mag. Time & Date
Minimum magnitude displayed is 2.5.

Coastal Water Temperatures

Place Temperature

Nearby Weather Stations